Flight Track Log - Related Links

Times and Time Zones

All times are in EDT time to prevent confusion due to time zone crossing. See the N606FT flight status page for this flight to view local times or setup timezone preferences in your user account.

Time Position Orientation Groundspeed Altitude Reporting Facility
EDT Latitude Longitude Course Direction KTS MPH feet Rate Location/Type
Tue 11:09:18 AM 27.9167 -81.8333 74° East 87 100 2,900  Level Tampa TRACON
Tue 11:10:23 AM 27.9333 -81.8167 41° Northeast 83 96 2,900  Level Orlando TRACON
Tue 11:11:23 AM 27.9500 -81.8000 41° Northeast 89 102 2,900  Level Orlando TRACON
Tue 11:12:23 AM 27.9667 -81.7667 60° Northeast 86 99 2,900  Level Orlando TRACON
Tue 11:13:23 AM 27.9833 -81.7500 41° Northeast 87 100 2,900 -50 Level Orlando TRACON
Tue 11:14:00 AM 28.1190 -81.5344 74° East  Level FlightAware Approximate
Tue 11:14:23 AM 28.0000 -81.7167 60° Northeast 88 101 2,800  Level Orlando TRACON
Tue 11:15:12 AM 28.0000 -81.7000 90° East 88 101 2,900  Climbing Orlando TRACON
Tue 11:16:11 AM 28.0167 -81.6833 41° Northeast 88 101 2,800 -45 Descending Orlando TRACON
Tue 11:17:24 AM 28.0333 -81.6500 60° Northeast 87 100 2,800 47 Level Orlando TRACON
Tue 11:18:18 AM 28.0500 -81.6333 41° Northeast 89 102 2,900 53 Climbing Orlando TRACON
Tue 11:19:18 AM 28.0500 -81.6167 90° East 90 104 2,900 -48 Level Orlando TRACON
Tue 11:20:24 AM 28.0667 -81.5833 60° Northeast 91 105 2,800 -48 Descending Orlando TRACON
Tue 11:21:24 AM 28.0667 -81.5500 90° East 90 104 2,800 50 Level Orlando TRACON
Tue 11:22:24 AM 28.0667 -81.5167 90° East 93 107 2,900  Climbing Orlando TRACON
Tue 11:23:25 AM 28.0667 -81.5000 90° East 92 106 2,800 -50 Descending Orlando TRACON
Tue 11:24:25 AM 28.0833 -81.4667 60° Northeast 88 101 2,800  Level Orlando TRACON
Tue 11:25:25 AM 28.0833 -81.4333 90° East 88 101 2,800  Level Orlando TRACON
Tue 11:26:25 AM 28.0833 -81.4167 90° East 90 104 2,800  Level Orlando TRACON
Tue 11:27:25 AM 28.0833 -81.3833 90° East 88 101 2,800 -48 Level Orlando TRACON
Tue 11:28:31 AM 28.0833 -81.3500 90° East 87 100 2,700 -48 Descending Orlando TRACON
Tue 11:29:31 AM 28.1000 -81.3333 41° Northeast 87 100 2,700  Level Orlando TRACON
Tue 11:30:25 AM 28.1167 -81.3167 41° Northeast 85 98 2,700  Level Orlando TRACON
Tue 11:31:31 AM 28.1167 -81.2833 90° East 87 100 2,700 -50 Level Orlando TRACON
Tue 11:32:25 AM 28.1167 -81.2500 90° East 86 99 2,600 50 Descending Orlando TRACON
Tue 11:33:32 AM 28.1167 -81.2333 90° East 93 107 2,800 135 Climbing Orlando TRACON
Tue 11:34:38 AM 28.1167 -81.2000 90° East 89 102 2,900  Climbing Orlando TRACON
Tue 11:35:38 AM 28.1333 -81.1667 60° Northeast 90 104 2,800 -100 Descending Orlando TRACON
Tue 11:36:38 AM 28.1500 -81.1500 41° Northeast 90 104 2,700 -53 Descending Orlando TRACON
Tue 11:37:32 AM 28.1500 -81.1167 90° East 89 102 2,700  Level Orlando TRACON
Tue 11:38:32 AM 28.1667 -81.1000 41° Northeast 87 100 2,700  Level Orlando TRACON
Tue 11:39:33 AM 28.1667 -81.0667 90° East 82 94 2,700  Level Orlando TRACON
Tue 11:40:38 AM 28.1667 -81.0333 90° East 87 100 2,700 50 Level Orlando TRACON
Tue 11:41:33 AM 28.1667 -81.0167 90° East 88 101 2,800 50 Climbing Orlando TRACON
Tue 11:42:39 AM 28.1833 -80.9833 60° Northeast 79 91 2,800 -50 Level Orlando TRACON
Tue 11:43:33 AM 28.1833 -80.9667 90° East 90 104 2,700 -56 Descending Orlando TRACON
Tue 11:44:27 AM 28.2000 -80.9500 41° Northeast 88 101 2,700 -16 Level Orlando TRACON
Tue 12:34:16 PM 28.3667 -80.7500 270° West 93 107 1,900  Descending Orlando TRACON
Tue 12:35:22 PM 28.3833 -80.7667 319° Northwest 90 104 2,700 524 Climbing Orlando TRACON
Tue 12:36:22 PM 28.4000 -80.7833 319° Northwest 91 105 3,000 198 Climbing Orlando TRACON
Tue 12:37:23 PM 28.4167 -80.8167 300° West 111 128 3,100  Climbing Orlando TRACON
Tue 12:38:23 PM 28.4333 -80.8333 319° Northwest 104 120 3,000  Descending Orlando TRACON
Tue 12:39:23 PM 28.4500 -80.8500 319° Northwest 102 117 3,100 50 Climbing Orlando TRACON
Tue 12:40:23 PM 28.4833 -80.8833 319° Northwest 110 127 3,100 53 Level Orlando TRACON
Tue 12:41:17 PM 28.5000 -80.9000 319° Northwest 104 120 3,200 48 Climbing Orlando TRACON
Tue 12:42:29 PM 28.5167 -80.9333 300° West 104 120 3,200  Level Orlando TRACON
Tue 12:43:29 PM 28.5333 -80.9500 319° Northwest 101 116 3,200  Level Orlando TRACON
Tue 12:44:23 PM 28.5500 -80.9833 300° West 98 113 3,200  Level Orlando TRACON
Tue 12:45:23 PM 28.5833 -81.0000 336° Northwest 96 110 3,200 -50 Level Orlando TRACON
Tue 12:46:24 PM 28.6000 -81.0167 319° Northwest 99 114 3,100 -47 Descending Orlando TRACON
Tue 12:47:30 PM 28.6167 -81.0333 319° Northwest 105 121 3,100 -50 Level Orlando TRACON
Tue 12:48:24 PM 28.6333 -81.0667 300° West 98 113 3,000  Descending Orlando TRACON
Tue 12:49:24 PM 28.6500 -81.0833 319° Northwest 90 104 3,100 48 Climbing Orlando TRACON
Tue 12:50:30 PM 28.6667 -81.1000 319° Northwest 94 108 3,100 48 Level Orlando TRACON
Tue 12:51:30 PM 28.6833 -81.1333 300° West 94 108 3,200 50 Climbing Orlando TRACON
Tue 12:52:31 PM 28.7000 -81.1500 319° Northwest 94 108 3,200 -50 Level Orlando TRACON
Tue 12:53:31 PM 28.6833 -81.1667 221° Southwest 100 115 3,100 -50 Descending Orlando TRACON
Tue 12:54:31 PM 28.6833 -81.2000 270° West 102 117 3,100 -50 Level Orlando TRACON
Tue 12:55:31 PM 28.6833 -81.2333 270° West 98 113 3,000 50 Descending Orlando TRACON
Tue 12:56:31 PM 28.7000 -81.2500 319° Northwest 96 110 3,200 104 Climbing Orlando TRACON
Tue 12:57:26 PM 28.7167 -81.2833 300° West 97 112 3,200  Level Orlando TRACON
Tue 12:58:26 PM 28.7333 -81.3000 319° Northwest 105 121 3,200 -48 Level Orlando TRACON
Tue 12:59:32 PM 28.7500 -81.3333 300° West 102 117 3,100 -95 Descending Orlando TRACON
Tue 01:00:32 PM 28.7667 -81.3667 300° West 100 115 3,000  Descending Orlando TRACON
Tue 01:01:27 PM 28.7833 -81.3833 319° Northwest 97 112 3,100  Climbing Orlando TRACON
Tue 01:02:27 PM 28.8000 -81.4000 319° Northwest 91 105 3,000  Descending Orlando TRACON
Tue 01:03:27 PM 28.8167 -81.4333 300° West 97 112 3,100 48 Climbing Orlando TRACON
Tue 01:04:33 PM 28.8167 -81.4667 270° West 98 113 3,100 -50 Level Orlando TRACON
Tue 01:05:27 PM 28.8333 -81.4833 319° Northwest 99 114 3,000 -53 Descending Orlando TRACON
Tue 01:06:27 PM 28.8333 -81.5167 270° West 98 113 3,000  Level Orlando TRACON
Tue 01:07:33 PM 28.8500 -81.5500 300° West 95 109 3,000  Level Orlando TRACON
Tue 01:08:33 PM 28.8500 -81.5833 270° West 95 109 3,000  Level Orlando TRACON
Tue 01:09:28 PM 28.8500 -81.6000 270° West 95 109 3,000 48 Level Orlando TRACON
Tue 01:10:39 PM 28.8667 -81.6333 300° West 97 112 3,100 95 Climbing Orlando TRACON
Tue 01:11:34 PM 28.8833 -81.6667 300° West 96 110 3,200 109 Climbing Orlando TRACON

Login

Don't have an account? Register now (free) for customized features, flight alerts, and more!